Terminal Aerodrome Forecast
Issued by NWS

Home | Current Version | Previous Version | Text Only | Print | Product List | Glossary On
Versions: 1 2 3 4 5 6 7 8 9 10 11 12 13 14 15 16 17 18 19
000
FTUS44 KHGX 261137
TAFLBX
TAF
KLBX 261137Z 2612/2712 28003KT P6SM VCTS SCT010 BKN015 BKN028CB
      TEMPO 2612/2615 VRB10G20KT 4SM TSRA BR BKN015CB
     FM262100 VRB04KT P6SM FEW035 BKN100
     FM271000 VRB03KT P6SM VCTS BKN025CB=

USA.gov is the U.S. government's official web portal to all federal, state and local government web resources and services.